sensor_id;sensor_type;location;lat;lon;timestamp;P1;durP1;ratioP1;P2;durP2;ratioP2
47103;SDS011;32853;52.164;5.400;2022-08-21T00:01:03;6.68;;;1.92;;
47103;SDS011;32853;52.164;5.400;2022-08-21T00:03:32;4.95;;;2.00;;
47103;SDS011;32853;52.164;5.400;2022-08-21T00:05:57;6.35;;;2.13;;
47103;SDS011;32853;52.164;5.400;2022-08-21T00:08:23;5.90;;;2.03;;
47103;SDS011;32853;52.164;5.400;2022-08-21T00:10:48;4.10;;;1.83;;
47103;SDS011;32853;52.164;5.400;2022-08-21T00:13:15;5.93;;;1.93;;
47103;SDS011;32853;52.164;5.400;2022-08-21T00:15:43;7.95;;;1.90;;
47103;SDS011;32853;52.164;5.400;2022-08-21T00:18:08;5.13;;;2.35;;
47103;SDS011;32853;52.164;5.400;2022-08-21T00:20:36;6.85;;;2.63;;
47103;SDS011;32853;52.164;5.400;2022-08-21T00:23:03;7.20;;;2.08;;
47103;SDS011;32853;52.164;5.400;2022-08-21T00:25:28;3.70;;;2.08;;
47103;SDS011;32853;52.164;5.400;2022-08-21T00:27:54;7.67;;;2.03;;
47103;SDS011;32853;52.164;5.400;2022-08-21T00:30:26;3.50;;;1.80;;
47103;SDS011;32853;52.164;5.400;2022-08-21T00:32:52;4.23;;;1.97;;
47103;SDS011;32853;52.164;5.400;2022-08-21T00:35:20;5.45;;;2.30;;
47103;SDS011;32853;52.164;5.400;2022-08-21T00:37:48;9.63;;;2.00;;
47103;SDS011;32853;52.164;5.400;2022-08-21T00:40:15;5.37;;;2.17;;
47103;SDS011;32853;52.164;5.400;2022-08-21T00:42:43;9.32;;;3.10;;
47103;SDS011;32853;52.164;5.400;2022-08-21T00:45:09;5.00;;;2.40;;
47103;SDS011;32853;52.164;5.400;2022-08-21T00:47:36;5.15;;;1.95;;
47103;SDS011;32853;52.164;5.400;2022-08-21T00:50:03;6.32;;;2.50;;
47103;SDS011;32853;52.164;5.400;2022-08-21T00:52:32;7.15;;;2.85;;
47103;SDS011;32853;52.164;5.400;2022-08-21T00:55:03;4.85;;;1.85;;
47103;SDS011;32853;52.164;5.400;2022-08-21T00:57:33;5.00;;;2.20;;
47103;SDS011;32853;52.164;5.400;2022-08-21T01:00:04;5.50;;;1.85;;
47103;SDS011;32853;52.164;5.400;2022-08-21T01:02:33;4.20;;;2.25;;
47103;SDS011;32853;52.164;5.400;2022-08-21T01:04:59;7.65;;;2.65;;
47103;SDS011;32853;52.164;5.400;2022-08-21T01:07:24;4.97;;;1.70;;
47103;SDS011;32853;52.164;5.400;2022-08-21T01:09:50;4.95;;;2.35;;
47103;SDS011;32853;52.164;5.400;2022-08-21T01:12:16;12.85;;;2.45;;
47103;SDS011;32853;52.164;5.400;2022-08-21T01:14:42;6.15;;;2.22;;
47103;SDS011;32853;52.164;5.400;2022-08-21T01:17:08;6.57;;;2.20;;
47103;SDS011;32853;52.164;5.400;2022-08-21T01:19:36;4.47;;;2.17;;
47103;SDS011;32853;52.164;5.400;2022-08-21T01:22:01;4.03;;;2.10;;
47103;SDS011;32853;52.164;5.400;2022-08-21T01:24:27;7.23;;;2.10;;
47103;SDS011;32853;52.164;5.400;2022-08-21T01:27:10;6.57;;;2.43;;
47103;SDS011;32853;52.164;5.400;2022-08-21T01:32:28;5.18;;;2.53;;
47103;SDS011;32853;52.164;5.400;2022-08-21T01:34:54;7.35;;;3.00;;
47103;SDS011;32853;52.164;5.400;2022-08-21T01:37:19;7.03;;;2.80;;
47103;SDS011;32853;52.164;5.400;2022-08-21T01:39:46;7.70;;;2.95;;
47103;SDS011;32853;52.164;5.400;2022-08-21T01:42:26;7.75;;;3.03;;
47103;SDS011;32853;52.164;5.400;2022-08-21T01:44:51;9.27;;;2.40;;
47103;SDS011;32853;52.164;5.400;2022-08-21T01:47:17;5.60;;;2.30;;
47103;SDS011;32853;52.164;5.400;2022-08-21T01:49:43;6.27;;;2.77;;
47103;SDS011;32853;52.164;5.400;2022-08-21T01:52:10;7.22;;;2.75;;
47103;SDS011;32853;52.164;5.400;2022-08-21T01:59:55;6.53;;;2.50;;
47103;SDS011;32853;52.164;5.400;2022-08-21T02:02:21;5.72;;;2.92;;
47103;SDS011;32853;52.164;5.400;2022-08-21T02:04:55;6.35;;;2.65;;
47103;SDS011;32853;52.164;5.400;2022-08-21T02:07:21;7.35;;;2.50;;
47103;SDS011;32853;52.164;5.400;2022-08-21T02:09:46;5.87;;;2.77;;
47103;SDS011;32853;52.164;5.400;2022-08-21T02:14:43;6.43;;;2.70;;
47103;SDS011;32853;52.164;5.400;2022-08-21T02:17:08;7.63;;;2.77;;
47103;SDS011;32853;52.164;5.400;2022-08-21T02:19:34;7.30;;;2.90;;
47103;SDS011;32853;52.164;5.400;2022-08-21T02:22:01;6.73;;;2.83;;
47103;SDS011;32853;52.164;5.400;2022-08-21T02:24:30;8.30;;;3.60;;
47103;SDS011;32853;52.164;5.400;2022-08-21T02:26:56;4.72;;;2.45;;
47103;SDS011;32853;52.164;5.400;2022-08-21T02:29:21;6.00;;;2.47;;
47103;SDS011;32853;52.164;5.400;2022-08-21T02:31:47;5.30;;;2.53;;
47103;SDS011;32853;52.164;5.400;2022-08-21T02:34:12;7.50;;;2.53;;
47103;SDS011;32853;52.164;5.400;2022-08-21T02:36:37;8.00;;;2.80;;
47103;SDS011;32853;52.164;5.400;2022-08-21T02:39:03;8.40;;;2.97;;
47103;SDS011;32853;52.164;5.400;2022-08-21T02:41:29;5.55;;;2.53;;
47103;SDS011;32853;52.164;5.400;2022-08-21T02:43:54;8.55;;;3.03;;
47103;SDS011;32853;52.164;5.400;2022-08-21T02:46:20;8.37;;;2.73;;
47103;SDS011;32853;52.164;5.400;2022-08-21T02:48:46;10.55;;;2.67;;
47103;SDS011;32853;52.164;5.400;2022-08-21T02:51:13;5.72;;;2.55;;
47103;SDS011;32853;52.164;5.400;2022-08-21T02:53:41;4.27;;;2.63;;
47103;SDS011;32853;52.164;5.400;2022-08-21T02:56:08;7.93;;;2.75;;
47103;SDS011;32853;52.164;5.400;2022-08-21T02:58:37;5.93;;;2.28;;
47103;SDS011;32853;52.164;5.400;2022-08-21T03:01:05;5.72;;;2.88;;
47103;SDS011;32853;52.164;5.400;2022-08-21T03:03:34;8.43;;;3.03;;
47103;SDS011;32853;52.164;5.400;2022-08-21T03:06:00;6.35;;;2.58;;
47103;SDS011;32853;52.164;5.400;2022-08-21T03:08:26;7.00;;;2.72;;
47103;SDS011;32853;52.164;5.400;2022-08-21T03:10:54;7.25;;;2.83;;
47103;SDS011;32853;52.164;5.400;2022-08-21T03:13:20;5.88;;;2.72;;
47103;SDS011;32853;52.164;5.400;2022-08-21T03:15:59;6.68;;;2.53;;
47103;SDS011;32853;52.164;5.400;2022-08-21T03:18:24;5.40;;;2.55;;
47103;SDS011;32853;52.164;5.400;2022-08-21T03:20:54;8.10;;;2.80;;
47103;SDS011;32853;52.164;5.400;2022-08-21T03:23:19;9.80;;;2.95;;
47103;SDS011;32853;52.164;5.400;2022-08-21T03:25:48;7.28;;;2.90;;
47103;SDS011;32853;52.164;5.400;2022-08-21T03:28:16;5.18;;;2.50;;
47103;SDS011;32853;52.164;5.400;2022-08-21T03:30:45;7.55;;;3.63;;
47103;SDS011;32853;52.164;5.400;2022-08-21T03:33:12;7.47;;;2.72;;
47103;SDS011;32853;52.164;5.400;2022-08-21T03:35:38;7.35;;;2.88;;
47103;SDS011;32853;52.164;5.400;2022-08-21T03:38:03;6.97;;;2.70;;
47103;SDS011;32853;52.164;5.400;2022-08-21T03:40:29;7.63;;;3.00;;
47103;SDS011;32853;52.164;5.400;2022-08-21T03:42:58;7.97;;;2.77;;
47103;SDS011;32853;52.164;5.400;2022-08-21T03:45:24;8.98;;;2.85;;
47103;SDS011;32853;52.164;5.400;2022-08-21T03:47:53;8.03;;;2.80;;
47103;SDS011;32853;52.164;5.400;2022-08-21T03:50:24;7.38;;;2.80;;
47103;SDS011;32853;52.164;5.400;2022-08-21T03:52:51;7.30;;;3.15;;
47103;SDS011;32853;52.164;5.400;2022-08-21T03:55:16;9.80;;;2.92;;
47103;SDS011;32853;52.164;5.400;2022-08-21T03:57:42;7.38;;;2.78;;
47103;SDS011;32853;52.164;5.400;2022-08-21T04:00:07;5.82;;;2.53;;
47103;SDS011;32853;52.164;5.400;2022-08-21T04:02:38;5.35;;;2.85;;
47103;SDS011;32853;52.164;5.400;2022-08-21T04:05:04;6.28;;;2.50;;
47103;SDS011;32853;52.164;5.400;2022-08-21T04:07:30;10.30;;;3.05;;
47103;SDS011;32853;52.164;5.400;2022-08-21T04:09:56;9.32;;;3.30;;
47103;SDS011;32853;52.164;5.400;2022-08-21T04:12:27;7.25;;;3.45;;
47103;SDS011;32853;52.164;5.400;2022-08-21T04:17:51;7.63;;;3.45;;
47103;SDS011;32853;52.164;5.400;2022-08-21T04:20:17;7.85;;;3.08;;
47103;SDS011;32853;52.164;5.400;2022-08-21T04:22:44;6.97;;;2.90;;
47103;SDS011;32853;52.164;5.400;2022-08-21T04:25:11;12.18;;;3.28;;
47103;SDS011;32853;52.164;5.400;2022-08-21T04:27:37;10.02;;;3.65;;
47103;SDS011;32853;52.164;5.400;2022-08-21T04:30:05;10.25;;;3.88;;
47103;SDS011;32853;52.164;5.400;2022-08-21T04:32:31;6.55;;;3.15;;
47103;SDS011;32853;52.164;5.400;2022-08-21T04:35:00;9.65;;;3.90;;
47103;SDS011;32853;52.164;5.400;2022-08-21T04:37:27;7.45;;;3.90;;
47103;SDS011;32853;52.164;5.400;2022-08-21T04:40:05;11.27;;;3.70;;
47103;SDS011;32853;52.164;5.400;2022-08-21T04:45:31;9.05;;;3.75;;
47103;SDS011;32853;52.164;5.400;2022-08-21T04:48:06;9.68;;;3.65;;
47103;SDS011;32853;52.164;5.400;2022-08-21T04:56:02;7.95;;;4.40;;
47103;SDS011;32853;52.164;5.400;2022-08-21T04:58:33;10.70;;;5.38;;
47103;SDS011;32853;52.164;5.400;2022-08-21T05:01:00;8.43;;;5.10;;
47103;SDS011;32853;52.164;5.400;2022-08-21T05:03:27;11.13;;;4.63;;
47103;SDS011;32853;52.164;5.400;2022-08-21T05:05:57;12.38;;;5.20;;
47103;SDS011;32853;52.164;5.400;2022-08-21T05:08:23;10.10;;;4.45;;
47103;SDS011;32853;52.164;5.400;2022-08-21T05:10:50;12.57;;;4.28;;
47103;SDS011;32853;52.164;5.400;2022-08-21T05:13:16;11.98;;;4.85;;
47103;SDS011;32853;52.164;5.400;2022-08-21T05:15:44;10.55;;;4.25;;
47103;SDS011;32853;52.164;5.400;2022-08-21T05:18:09;9.10;;;4.45;;
47103;SDS011;32853;52.164;5.400;2022-08-21T05:20:36;8.73;;;4.60;;
47103;SDS011;32853;52.164;5.400;2022-08-21T05:23:06;9.48;;;4.68;;
47103;SDS011;32853;52.164;5.400;2022-08-21T05:25:33;11.60;;;4.47;;
47103;SDS011;32853;52.164;5.400;2022-08-21T05:28:01;9.23;;;4.40;;
47103;SDS011;32853;52.164;5.400;2022-08-21T05:30:26;11.27;;;4.43;;
47103;SDS011;32853;52.164;5.400;2022-08-21T05:32:56;13.40;;;4.38;;
47103;SDS011;32853;52.164;5.400;2022-08-21T05:35:26;9.77;;;4.07;;
47103;SDS011;32853;52.164;5.400;2022-08-21T05:37:52;11.68;;;4.85;;
47103;SDS011;32853;52.164;5.400;2022-08-21T05:40:18;13.27;;;4.13;;
47103;SDS011;32853;52.164;5.400;2022-08-21T05:42:44;12.68;;;4.38;;
47103;SDS011;32853;52.164;5.400;2022-08-21T05:45:10;11.10;;;4.73;;
47103;SDS011;32853;52.164;5.400;2022-08-21T05:47:35;12.27;;;5.60;;
47103;SDS011;32853;52.164;5.400;2022-08-21T05:50:01;10.67;;;4.07;;
47103;SDS011;32853;52.164;5.400;2022-08-21T05:52:29;10.40;;;4.72;;
47103;SDS011;32853;52.164;5.400;2022-08-21T05:54:54;12.48;;;4.32;;
47103;SDS011;32853;52.164;5.400;2022-08-21T05:57:37;8.25;;;4.03;;
47103;SDS011;32853;52.164;5.400;2022-08-21T06:02:43;13.27;;;4.72;;
47103;SDS011;32853;52.164;5.400;2022-08-21T06:05:09;8.80;;;4.13;;
47103;SDS011;32853;52.164;5.400;2022-08-21T06:07:34;9.30;;;4.20;;
47103;SDS011;32853;52.164;5.400;2022-08-21T06:09:59;14.48;;;4.97;;
47103;SDS011;32853;52.164;5.400;2022-08-21T06:12:25;12.18;;;5.07;;
47103;SDS011;32853;52.164;5.400;2022-08-21T06:14:51;8.93;;;4.50;;
47103;SDS011;32853;52.164;5.400;2022-08-21T06:17:17;9.17;;;3.90;;
47103;SDS011;32853;52.164;5.400;2022-08-21T06:19:45;10.45;;;4.75;;
47103;SDS011;32853;52.164;5.400;2022-08-21T06:22:10;10.93;;;4.13;;
47103;SDS011;32853;52.164;5.400;2022-08-21T06:24:37;14.98;;;4.03;;
47103;SDS011;32853;52.164;5.400;2022-08-21T06:27:06;14.30;;;4.55;;
47103;SDS011;32853;52.164;5.400;2022-08-21T06:29:32;10.90;;;3.95;;
47103;SDS011;32853;52.164;5.400;2022-08-21T06:32:00;14.35;;;4.18;;
47103;SDS011;32853;52.164;5.400;2022-08-21T06:34:25;14.85;;;4.88;;
47103;SDS011;32853;52.164;5.400;2022-08-21T06:36:52;13.87;;;4.00;;
47103;SDS011;32853;52.164;5.400;2022-08-21T06:39:17;15.20;;;4.63;;
47103;SDS011;32853;52.164;5.400;2022-08-21T06:41:43;12.43;;;4.77;;
47103;SDS011;32853;52.164;5.400;2022-08-21T06:44:15;18.90;;;5.03;;
47103;SDS011;32853;52.164;5.400;2022-08-21T06:46:42;14.63;;;4.77;;
47103;SDS011;32853;52.164;5.400;2022-08-21T06:49:09;13.80;;;4.22;;
47103;SDS011;32853;52.164;5.400;2022-08-21T06:51:34;13.02;;;4.60;;
47103;SDS011;32853;52.164;5.400;2022-08-21T06:54:00;14.70;;;5.40;;
47103;SDS011;32853;52.164;5.400;2022-08-21T06:56:25;18.88;;;4.40;;
47103;SDS011;32853;52.164;5.400;2022-08-21T06:58:50;9.77;;;3.58;;
47103;SDS011;32853;52.164;5.400;2022-08-21T07:01:17;14.77;;;3.95;;
47103;SDS011;32853;52.164;5.400;2022-08-21T07:03:49;13.13;;;5.07;;
47103;SDS011;32853;52.164;5.400;2022-08-21T07:06:14;14.10;;;4.03;;
47103;SDS011;32853;52.164;5.400;2022-08-21T07:08:40;14.10;;;3.70;;
47103;SDS011;32853;52.164;5.400;2022-08-21T07:11:11;11.68;;;4.00;;
47103;SDS011;32853;52.164;5.400;2022-08-21T07:13:42;10.45;;;4.25;;
47103;SDS011;32853;52.164;5.400;2022-08-21T07:16:07;11.37;;;3.53;;
47103;SDS011;32853;52.164;5.400;2022-08-21T07:18:33;9.87;;;3.50;;
47103;SDS011;32853;52.164;5.400;2022-08-21T07:21:00;10.83;;;3.40;;
47103;SDS011;32853;52.164;5.400;2022-08-21T07:23:30;16.27;;;4.22;;
47103;SDS011;32853;52.164;5.400;2022-08-21T07:25:58;17.85;;;3.40;;
47103;SDS011;32853;52.164;5.400;2022-08-21T07:28:25;16.70;;;3.83;;
47103;SDS011;32853;52.164;5.400;2022-08-21T07:30:52;10.43;;;3.83;;
47103;SDS011;32853;52.164;5.400;2022-08-21T07:33:19;9.13;;;3.38;;
47103;SDS011;32853;52.164;5.400;2022-08-21T07:35:45;11.75;;;3.53;;
47103;SDS011;32853;52.164;5.400;2022-08-21T07:38:10;12.00;;;2.90;;
47103;SDS011;32853;52.164;5.400;2022-08-21T07:40:36;13.27;;;3.80;;
47103;SDS011;32853;52.164;5.400;2022-08-21T07:43:01;13.83;;;3.47;;
47103;SDS011;32853;52.164;5.400;2022-08-21T07:45:27;12.80;;;3.17;;
47103;SDS011;32853;52.164;5.400;2022-08-21T07:47:53;14.18;;;3.28;;
47103;SDS011;32853;52.164;5.400;2022-08-21T07:50:19;10.27;;;2.97;;
47103;SDS011;32853;52.164;5.400;2022-08-21T07:52:47;9.30;;;2.55;;
47103;SDS011;32853;52.164;5.400;2022-08-21T07:55:19;12.33;;;2.77;;
47103;SDS011;32853;52.164;5.400;2022-08-21T07:57:46;11.33;;;2.63;;
47103;SDS011;32853;52.164;5.400;2022-08-21T08:00:13;21.42;;;4.60;;
47103;SDS011;32853;52.164;5.400;2022-08-21T08:02:40;13.60;;;2.70;;
47103;SDS011;32853;52.164;5.400;2022-08-21T08:05:13;9.73;;;2.60;;
47103;SDS011;32853;52.164;5.400;2022-08-21T08:07:42;13.70;;;2.80;;
47103;SDS011;32853;52.164;5.400;2022-08-21T08:10:07;12.80;;;2.57;;
47103;SDS011;32853;52.164;5.400;2022-08-21T08:12:34;9.70;;;2.38;;
47103;SDS011;32853;52.164;5.400;2022-08-21T08:15:00;10.00;;;2.13;;
47103;SDS011;32853;52.164;5.400;2022-08-21T08:17:27;9.68;;;2.50;;
47103;SDS011;32853;52.164;5.400;2022-08-21T08:19:52;10.27;;;2.53;;
47103;SDS011;32853;52.164;5.400;2022-08-21T08:22:22;9.55;;;2.20;;
47103;SDS011;32853;52.164;5.400;2022-08-21T08:24:51;5.47;;;1.70;;
47103;SDS011;32853;52.164;5.400;2022-08-21T08:27:18;7.13;;;1.63;;
47103;SDS011;32853;52.164;5.400;2022-08-21T08:29:44;10.90;;;2.00;;
47103;SDS011;32853;52.164;5.400;2022-08-21T08:32:10;11.32;;;2.00;;
47103;SDS011;32853;52.164;5.400;2022-08-21T08:34:36;11.10;;;2.53;;
47103;SDS011;32853;52.164;5.400;2022-08-21T08:37:03;10.85;;;2.10;;
47103;SDS011;32853;52.164;5.400;2022-08-21T08:39:29;13.95;;;2.40;;
47103;SDS011;32853;52.164;5.400;2022-08-21T08:42:00;10.50;;;2.35;;
47103;SDS011;32853;52.164;5.400;2022-08-21T08:44:35;12.10;;;1.93;;
47103;SDS011;32853;52.164;5.400;2022-08-21T08:47:01;12.27;;;2.35;;
47103;SDS011;32853;52.164;5.400;2022-08-21T08:52:09;10.48;;;2.13;;
47103;SDS011;32853;52.164;5.400;2022-08-21T08:55:06;12.38;;;2.10;;
47103;SDS011;32853;52.164;5.400;2022-08-21T08:57:42;11.45;;;2.10;;
47103;SDS011;32853;52.164;5.400;2022-08-21T09:00:11;7.97;;;2.08;;
47103;SDS011;32853;52.164;5.400;2022-08-21T09:02:39;8.27;;;2.05;;
47103;SDS011;32853;52.164;5.400;2022-08-21T09:10:44;10.43;;;1.97;;
47103;SDS011;32853;52.164;5.400;2022-08-21T09:13:37;12.05;;;1.90;;
47103;SDS011;32853;52.164;5.400;2022-08-21T09:16:20;9.65;;;1.98;;
47103;SDS011;32853;52.164;5.400;2022-08-21T09:21:31;11.65;;;1.63;;
47103;SDS011;32853;52.164;5.400;2022-08-21T09:29:40;6.72;;;1.75;;
47103;SDS011;32853;52.164;5.400;2022-08-21T09:32:27;8.32;;;1.80;;
47103;SDS011;32853;52.164;5.400;2022-08-21T09:35:02;7.17;;;1.20;;
47103;SDS011;32853;52.164;5.400;2022-08-21T09:37:29;8.88;;;1.13;;
47103;SDS011;32853;52.164;5.400;2022-08-21T09:39:56;8.20;;;1.20;;
47103;SDS011;32853;52.164;5.400;2022-08-21T09:42:25;8.63;;;1.40;;
47103;SDS011;32853;52.164;5.400;2022-08-21T09:45:14;4.85;;;0.93;;
47103;SDS011;32853;52.164;5.400;2022-08-21T09:47:42;7.22;;;1.73;;
47103;SDS011;32853;52.164;5.400;2022-08-21T09:50:13;6.95;;;1.40;;
47103;SDS011;32853;52.164;5.400;2022-08-21T09:52:49;10.23;;;1.30;;
47103;SDS011;32853;52.164;5.400;2022-08-21T09:55:47;6.97;;;1.50;;
47103;SDS011;32853;52.164;5.400;2022-08-21T09:58:45;8.73;;;1.45;;
47103;SDS011;32853;52.164;5.400;2022-08-21T10:01:17;9.75;;;1.83;;
47103;SDS011;32853;52.164;5.400;2022-08-21T10:03:48;8.20;;;2.03;;
47103;SDS011;32853;52.164;5.400;2022-08-21T10:06:22;9.05;;;1.42;;
47103;SDS011;32853;52.164;5.400;2022-08-21T10:09:14;10.20;;;2.10;;
47103;SDS011;32853;52.164;5.400;2022-08-21T10:11:40;7.28;;;1.33;;
47103;SDS011;32853;52.164;5.400;2022-08-21T10:17:21;8.25;;;1.27;;
47103;SDS011;32853;52.164;5.400;2022-08-21T10:23:17;5.25;;;1.05;;
47103;SDS011;32853;52.164;5.400;2022-08-21T10:29:28;11.40;;;1.27;;
47103;SDS011;32853;52.164;5.400;2022-08-21T10:32:08;8.00;;;1.60;;
47103;SDS011;32853;52.164;5.400;2022-08-21T10:46:50;8.35;;;1.05;;
47103;SDS011;32853;52.164;5.400;2022-08-21T10:49:43;6.57;;;1.13;;
47103;SDS011;32853;52.164;5.400;2022-08-21T10:52:35;9.00;;;1.95;;
47103;SDS011;32853;52.164;5.400;2022-08-21T10:55:31;8.05;;;1.40;;
47103;SDS011;32853;52.164;5.400;2022-08-21T11:00:51;8.73;;;1.17;;
47103;SDS011;32853;52.164;5.400;2022-08-21T11:08:51;7.03;;;1.10;;
47103;SDS011;32853;52.164;5.400;2022-08-21T11:11:32;5.63;;;1.10;;
47103;SDS011;32853;52.164;5.400;2022-08-21T11:20:03;5.72;;;1.10;;
47103;SDS011;32853;52.164;5.400;2022-08-21T11:22:41;4.97;;;1.20;;
47103;SDS011;32853;52.164;5.400;2022-08-21T11:25:14;6.78;;;1.30;;
47103;SDS011;32853;52.164;5.400;2022-08-21T11:27:46;8.43;;;1.10;;
47103;SDS011;32853;52.164;5.400;2022-08-21T11:30:17;7.13;;;1.10;;
47103;SDS011;32853;52.164;5.400;2022-08-21T11:38:39;9.48;;;1.77;;
47103;SDS011;32853;52.164;5.400;2022-08-21T11:44:10;7.20;;;0.95;;
47103;SDS011;32853;52.164;5.400;2022-08-21T11:46:48;4.68;;;1.23;;
47103;SDS011;32853;52.164;5.400;2022-08-21T11:49:23;5.85;;;1.10;;
47103;SDS011;32853;52.164;5.400;2022-08-21T11:57:48;7.07;;;1.33;;
47103;SDS011;32853;52.164;5.400;2022-08-21T12:00:31;7.30;;;1.60;;
47103;SDS011;32853;52.164;5.400;2022-08-21T12:03:06;9.27;;;1.25;;
47103;SDS011;32853;52.164;5.400;2022-08-21T12:05:37;6.47;;;1.35;;
47103;SDS011;32853;52.164;5.400;2022-08-21T12:10:39;11.50;;;1.60;;
47103;SDS011;32853;52.164;5.400;2022-08-21T12:13:10;6.25;;;1.30;;
47103;SDS011;32853;52.164;5.400;2022-08-21T12:16:04;7.07;;;1.15;;
47103;SDS011;32853;52.164;5.400;2022-08-21T12:18:35;9.98;;;1.35;;
47103;SDS011;32853;52.164;5.400;2022-08-21T12:24:18;8.68;;;1.67;;
47103;SDS011;32853;52.164;5.400;2022-08-21T12:27:12;5.63;;;1.15;;
47103;SDS011;32853;52.164;5.400;2022-08-21T12:29:59;7.40;;;1.27;;
47103;SDS011;32853;52.164;5.400;2022-08-21T12:32:30;6.50;;;1.20;;
47103;SDS011;32853;52.164;5.400;2022-08-21T12:35:10;5.20;;;0.90;;
47103;SDS011;32853;52.164;5.400;2022-08-21T12:37:52;9.13;;;1.20;;
47103;SDS011;32853;52.164;5.400;2022-08-21T12:40:31;6.47;;;1.48;;
47103;SDS011;32853;52.164;5.400;2022-08-21T12:43:04;6.82;;;1.48;;
47103;SDS011;32853;52.164;5.400;2022-08-21T12:45:44;6.25;;;0.80;;
47103;SDS011;32853;52.164;5.400;2022-08-21T12:49:14;6.43;;;1.10;;
47103;SDS011;32853;52.164;5.400;2022-08-21T12:51:18;5.97;;;1.00;;
47103;SDS011;32853;52.164;5.400;2022-08-21T12:53:50;6.07;;;1.07;;
47103;SDS011;32853;52.164;5.400;2022-08-21T12:56:29;5.80;;;0.98;;
47103;SDS011;32853;52.164;5.400;2022-08-21T12:59:00;6.70;;;1.08;;
47103;SDS011;32853;52.164;5.400;2022-08-21T13:01:34;5.22;;;1.00;;
47103;SDS011;32853;52.164;5.400;2022-08-21T13:04:06;7.05;;;2.38;;
47103;SDS011;32853;52.164;5.400;2022-08-21T13:06:37;6.43;;;1.30;;
47103;SDS011;32853;52.164;5.400;2022-08-21T13:09:10;4.88;;;1.20;;
47103;SDS011;32853;52.164;5.400;2022-08-21T13:11:40;5.93;;;0.90;;
47103;SDS011;32853;52.164;5.400;2022-08-21T13:16:58;4.70;;;0.90;;
47103;SDS011;32853;52.164;5.400;2022-08-21T13:19:25;6.20;;;1.00;;
47103;SDS011;32853;52.164;5.400;2022-08-21T13:21:51;7.70;;;0.98;;
47103;SDS011;32853;52.164;5.400;2022-08-21T13:26:46;5.18;;;1.40;;
47103;SDS011;32853;52.164;5.400;2022-08-21T13:29:13;4.20;;;0.93;;
47103;SDS011;32853;52.164;5.400;2022-08-21T13:31:48;8.23;;;0.80;;
47103;SDS011;32853;52.164;5.400;2022-08-21T13:34:17;6.40;;;0.73;;
47103;SDS011;32853;52.164;5.400;2022-08-21T13:36:46;4.00;;;0.90;;
47103;SDS011;32853;52.164;5.400;2022-08-21T13:39:12;7.85;;;1.10;;
47103;SDS011;32853;52.164;5.400;2022-08-21T13:41:42;4.63;;;0.90;;
47103;SDS011;32853;52.164;5.400;2022-08-21T13:44:17;5.10;;;0.90;;
47103;SDS011;32853;52.164;5.400;2022-08-21T13:46:45;4.63;;;1.15;;
47103;SDS011;32853;52.164;5.400;2022-08-21T13:49:12;4.32;;;0.80;;
47103;SDS011;32853;52.164;5.400;2022-08-21T13:51:40;7.93;;;1.05;;
47103;SDS011;32853;52.164;5.400;2022-08-21T13:54:15;7.40;;;1.00;;
47103;SDS011;32853;52.164;5.400;2022-08-21T13:56:46;7.03;;;1.55;;
47103;SDS011;32853;52.164;5.400;2022-08-21T13:59:12;6.10;;;1.33;;
47103;SDS011;32853;52.164;5.400;2022-08-21T14:01:51;4.72;;;1.05;;
47103;SDS011;32853;52.164;5.400;2022-08-21T14:04:23;5.78;;;1.30;;
47103;SDS011;32853;52.164;5.400;2022-08-21T14:06:51;5.10;;;0.95;;
47103;SDS011;32853;52.164;5.400;2022-08-21T14:11:54;4.25;;;1.30;;
47103;SDS011;32853;52.164;5.400;2022-08-21T14:14:24;4.88;;;0.90;;
47103;SDS011;32853;52.164;5.400;2022-08-21T14:16:59;5.20;;;1.00;;
47103;SDS011;32853;52.164;5.400;2022-08-21T14:19:26;3.80;;;1.00;;
47103;SDS011;32853;52.164;5.400;2022-08-21T14:22:00;7.15;;;1.00;;
47103;SDS011;32853;52.164;5.400;2022-08-21T14:24:26;9.50;;;1.80;;
47103;SDS011;32853;52.164;5.400;2022-08-21T14:27:01;5.05;;;0.73;;
47103;SDS011;32853;52.164;5.400;2022-08-21T14:29:32;7.28;;;1.65;;
47103;SDS011;32853;52.164;5.400;2022-08-21T14:32:08;6.93;;;1.67;;
47103;SDS011;32853;52.164;5.400;2022-08-21T14:34:44;5.10;;;0.90;;
47103;SDS011;32853;52.164;5.400;2022-08-21T14:37:10;6.57;;;1.80;;
47103;SDS011;32853;52.164;5.400;2022-08-21T14:39:35;6.37;;;1.40;;
47103;SDS011;32853;52.164;5.400;2022-08-21T14:42:00;3.83;;;1.00;;
47103;SDS011;32853;52.164;5.400;2022-08-21T14:44:27;6.07;;;1.10;;
47103;SDS011;32853;52.164;5.400;2022-08-21T14:46:52;5.70;;;1.67;;
47103;SDS011;32853;52.164;5.400;2022-08-21T14:49:18;4.28;;;0.93;;
47103;SDS011;32853;52.164;5.400;2022-08-21T14:51:43;6.68;;;0.82;;
47103;SDS011;32853;52.164;5.400;2022-08-21T14:54:09;4.90;;;0.93;;
47103;SDS011;32853;52.164;5.400;2022-08-21T14:56:34;6.30;;;0.90;;
47103;SDS011;32853;52.164;5.400;2022-08-21T14:59:02;3.10;;;0.93;;
47103;SDS011;32853;52.164;5.400;2022-08-21T15:01:29;6.05;;;0.90;;
47103;SDS011;32853;52.164;5.400;2022-08-21T15:03:56;7.50;;;1.17;;
47103;SDS011;32853;52.164;5.400;2022-08-21T15:06:22;8.50;;;0.90;;
47103;SDS011;32853;52.164;5.400;2022-08-21T15:08:47;3.33;;;0.80;;
47103;SDS011;32853;52.164;5.400;2022-08-21T15:11:16;5.60;;;1.00;;
47103;SDS011;32853;52.164;5.400;2022-08-21T15:13:43;6.15;;;1.20;;
47103;SDS011;32853;52.164;5.400;2022-08-21T15:16:09;5.97;;;1.30;;
47103;SDS011;32853;52.164;5.400;2022-08-21T15:18:36;4.93;;;0.70;;
47103;SDS011;32853;52.164;5.400;2022-08-21T15:21:02;4.22;;;0.63;;
47103;SDS011;32853;52.164;5.400;2022-08-21T15:23:27;5.68;;;0.88;;
47103;SDS011;32853;52.164;5.400;2022-08-21T15:25:52;2.77;;;0.90;;
47103;SDS011;32853;52.164;5.400;2022-08-21T15:28:18;2.60;;;0.80;;
47103;SDS011;32853;52.164;5.400;2022-08-21T15:30:46;7.90;;;0.95;;
47103;SDS011;32853;52.164;5.400;2022-08-21T15:33:12;5.38;;;1.20;;
47103;SDS011;32853;52.164;5.400;2022-08-21T15:35:37;4.35;;;0.95;;
47103;SDS011;32853;52.164;5.400;2022-08-21T15:38:04;6.05;;;1.00;;
47103;SDS011;32853;52.164;5.400;2022-08-21T15:40:29;8.43;;;1.10;;
47103;SDS011;32853;52.164;5.400;2022-08-21T15:43:02;9.50;;;0.90;;
47103;SDS011;32853;52.164;5.400;2022-08-21T15:45:29;4.65;;;0.70;;
47103;SDS011;32853;52.164;5.400;2022-08-21T15:47:55;5.70;;;0.80;;
47103;SDS011;32853;52.164;5.400;2022-08-21T15:50:21;6.80;;;1.00;;
47103;SDS011;32853;52.164;5.400;2022-08-21T15:52:47;5.28;;;1.02;;
47103;SDS011;32853;52.164;5.400;2022-08-21T15:55:12;4.03;;;0.83;;
47103;SDS011;32853;52.164;5.400;2022-08-21T15:57:42;4.72;;;0.98;;
47103;SDS011;32853;52.164;5.400;2022-08-21T16:00:13;4.85;;;0.90;;
47103;SDS011;32853;52.164;5.400;2022-08-21T16:02:48;8.02;;;1.58;;
47103;SDS011;32853;52.164;5.400;2022-08-21T16:05:16;4.32;;;0.73;;
47103;SDS011;32853;52.164;5.400;2022-08-21T16:07:42;4.13;;;0.65;;
47103;SDS011;32853;52.164;5.400;2022-08-21T16:10:09;4.55;;;0.60;;
47103;SDS011;32853;52.164;5.400;2022-08-21T16:12:36;3.50;;;0.68;;
47103;SDS011;32853;52.164;5.400;2022-08-21T16:15:07;4.53;;;0.63;;
47103;SDS011;32853;52.164;5.400;2022-08-21T16:17:35;5.20;;;0.73;;
47103;SDS011;32853;52.164;5.400;2022-08-21T16:20:04;5.78;;;0.80;;
47103;SDS011;32853;52.164;5.400;2022-08-21T16:22:45;7.03;;;0.85;;
47103;SDS011;32853;52.164;5.400;2022-08-21T16:25:11;5.00;;;0.77;;
47103;SDS011;32853;52.164;5.400;2022-08-21T16:27:38;6.47;;;1.00;;
47103;SDS011;32853;52.164;5.400;2022-08-21T16:30:05;7.88;;;1.00;;
47103;SDS011;32853;52.164;5.400;2022-08-21T16:32:31;5.10;;;0.85;;
47103;SDS011;32853;52.164;5.400;2022-08-21T16:37:28;4.43;;;0.90;;
47103;SDS011;32853;52.164;5.400;2022-08-21T16:39:54;6.03;;;0.70;;
47103;SDS011;32853;52.164;5.400;2022-08-21T16:42:27;6.10;;;0.77;;
47103;SDS011;32853;52.164;5.400;2022-08-21T16:44:53;9.10;;;1.30;;
47103;SDS011;32853;52.164;5.400;2022-08-21T16:47:19;5.03;;;0.80;;